sensor_id;sensor_type;location;lat;lon;timestamp;P1;durP1;ratioP1;P2;durP2;ratioP2
6105;SDS011;3083;51.508;7.966;2023-05-10T00:00:09;9.80;;;4.03;;
6105;SDS011;3083;51.508;7.966;2023-05-10T00:02:37;9.20;;;3.93;;
6105;SDS011;3083;51.508;7.966;2023-05-10T00:05:04;10.73;;;4.60;;
6105;SDS011;3083;51.508;7.966;2023-05-10T00:07:32;12.10;;;4.60;;
6105;SDS011;3083;51.508;7.966;2023-05-10T00:10:00;14.20;;;4.50;;
6105;SDS011;3083;51.508;7.966;2023-05-10T00:12:27;11.73;;;4.57;;
6105;SDS011;3083;51.508;7.966;2023-05-10T00:14:54;10.10;;;3.90;;
6105;SDS011;3083;51.508;7.966;2023-05-10T00:17:21;8.93;;;3.50;;
6105;SDS011;3083;51.508;7.966;2023-05-10T00:19:48;9.60;;;4.33;;
6105;SDS011;3083;51.508;7.966;2023-05-10T00:22:15;9.07;;;3.90;;
6105;SDS011;3083;51.508;7.966;2023-05-10T00:24:42;9.70;;;4.10;;
6105;SDS011;3083;51.508;7.966;2023-05-10T00:27:10;7.97;;;4.00;;
6105;SDS011;3083;51.508;7.966;2023-05-10T00:29:37;7.90;;;3.97;;
6105;SDS011;3083;51.508;7.966;2023-05-10T00:32:04;9.73;;;3.90;;
6105;SDS011;3083;51.508;7.966;2023-05-10T00:34:31;9.10;;;4.00;;
6105;SDS011;3083;51.508;7.966;2023-05-10T00:36:58;6.70;;;3.40;;
6105;SDS011;3083;51.508;7.966;2023-05-10T00:39:24;6.80;;;3.53;;
6105;SDS011;3083;51.508;7.966;2023-05-10T00:41:53;7.53;;;3.40;;
6105;SDS011;3083;51.508;7.966;2023-05-10T00:44:22;6.30;;;3.47;;
6105;SDS011;3083;51.508;7.966;2023-05-10T00:46:49;6.57;;;3.40;;
6105;SDS011;3083;51.508;7.966;2023-05-10T00:49:16;8.00;;;4.00;;
6105;SDS011;3083;51.508;7.966;2023-05-10T00:51:43;6.40;;;3.20;;
6105;SDS011;3083;51.508;7.966;2023-05-10T00:54:11;6.67;;;3.23;;
6105;SDS011;3083;51.508;7.966;2023-05-10T00:56:40;7.60;;;3.60;;
6105;SDS011;3083;51.508;7.966;2023-05-10T00:59:08;5.57;;;3.17;;
6105;SDS011;3083;51.508;7.966;2023-05-10T01:01:37;6.90;;;3.57;;
6105;SDS011;3083;51.508;7.966;2023-05-10T01:04:04;6.60;;;3.40;;
6105;SDS011;3083;51.508;7.966;2023-05-10T01:06:31;7.63;;;3.30;;
6105;SDS011;3083;51.508;7.966;2023-05-10T01:08:58;9.30;;;3.93;;
6105;SDS011;3083;51.508;7.966;2023-05-10T01:11:25;6.87;;;3.30;;
6105;SDS011;3083;51.508;7.966;2023-05-10T01:13:54;7.37;;;3.50;;
6105;SDS011;3083;51.508;7.966;2023-05-10T01:16:23;7.00;;;3.40;;
6105;SDS011;3083;51.508;7.966;2023-05-10T01:18:52;6.13;;;3.43;;
6105;SDS011;3083;51.508;7.966;2023-05-10T01:21:21;6.67;;;3.40;;
6105;SDS011;3083;51.508;7.966;2023-05-10T01:24:01;13.00;;;3.77;;
6105;SDS011;3083;51.508;7.966;2023-05-10T01:26:51;6.20;;;3.03;;
6105;SDS011;3083;51.508;7.966;2023-05-10T01:29:36;6.13;;;3.40;;
6105;SDS011;3083;51.508;7.966;2023-05-10T01:32:29;8.70;;;3.50;;
6105;SDS011;3083;51.508;7.966;2023-05-10T01:35:02;8.37;;;4.03;;
6105;SDS011;3083;51.508;7.966;2023-05-10T01:37:35;6.60;;;3.60;;
6105;SDS011;3083;51.508;7.966;2023-05-10T01:40:08;6.43;;;3.00;;
6105;SDS011;3083;51.508;7.966;2023-05-10T01:42:46;6.53;;;3.60;;
6105;SDS011;3083;51.508;7.966;2023-05-10T01:45:20;7.40;;;3.50;;
6105;SDS011;3083;51.508;7.966;2023-05-10T01:47:55;6.40;;;3.50;;
6105;SDS011;3083;51.508;7.966;2023-05-10T01:50:29;5.10;;;3.20;;
6105;SDS011;3083;51.508;7.966;2023-05-10T01:52:57;7.07;;;3.97;;
6105;SDS011;3083;51.508;7.966;2023-05-10T01:55:27;8.03;;;3.97;;
6105;SDS011;3083;51.508;7.966;2023-05-10T01:57:58;7.70;;;4.10;;
6105;SDS011;3083;51.508;7.966;2023-05-10T02:00:40;8.00;;;3.90;;
6105;SDS011;3083;51.508;7.966;2023-05-10T02:03:10;9.37;;;4.33;;
6105;SDS011;3083;51.508;7.966;2023-05-10T02:05:40;8.00;;;4.43;;
6105;SDS011;3083;51.508;7.966;2023-05-10T02:08:10;9.50;;;4.70;;
6105;SDS011;3083;51.508;7.966;2023-05-10T02:10:39;8.40;;;4.77;;
6105;SDS011;3083;51.508;7.966;2023-05-10T02:13:07;8.90;;;4.73;;
6105;SDS011;3083;51.508;7.966;2023-05-10T02:15:36;9.73;;;4.70;;
6105;SDS011;3083;51.508;7.966;2023-05-10T02:18:04;11.87;;;5.30;;
6105;SDS011;3083;51.508;7.966;2023-05-10T02:20:33;9.10;;;4.90;;
6105;SDS011;3083;51.508;7.966;2023-05-10T02:23:01;10.90;;;5.30;;
6105;SDS011;3083;51.508;7.966;2023-05-10T02:25:29;10.17;;;5.23;;
6105;SDS011;3083;51.508;7.966;2023-05-10T02:27:57;13.20;;;6.03;;
6105;SDS011;3083;51.508;7.966;2023-05-10T02:30:27;10.53;;;5.70;;
6105;SDS011;3083;51.508;7.966;2023-05-10T02:32:56;8.93;;;5.20;;
6105;SDS011;3083;51.508;7.966;2023-05-10T02:35:24;14.17;;;5.93;;
6105;SDS011;3083;51.508;7.966;2023-05-10T02:37:54;10.73;;;5.43;;
6105;SDS011;3083;51.508;7.966;2023-05-10T02:40:22;11.20;;;5.20;;
6105;SDS011;3083;51.508;7.966;2023-05-10T02:42:50;11.60;;;5.40;;
6105;SDS011;3083;51.508;7.966;2023-05-10T02:45:22;11.00;;;5.20;;
6105;SDS011;3083;51.508;7.966;2023-05-10T02:47:53;10.70;;;5.63;;
6105;SDS011;3083;51.508;7.966;2023-05-10T02:50:20;12.57;;;5.63;;
6105;SDS011;3083;51.508;7.966;2023-05-10T02:52:49;12.93;;;5.90;;
6105;SDS011;3083;51.508;7.966;2023-05-10T02:55:19;12.70;;;6.03;;
6105;SDS011;3083;51.508;7.966;2023-05-10T02:57:51;14.13;;;6.27;;
6105;SDS011;3083;51.508;7.966;2023-05-10T03:00:23;11.10;;;5.83;;
6105;SDS011;3083;51.508;7.966;2023-05-10T03:02:50;11.20;;;5.90;;
6105;SDS011;3083;51.508;7.966;2023-05-10T03:05:17;11.70;;;5.70;;
6105;SDS011;3083;51.508;7.966;2023-05-10T03:07:44;10.57;;;5.60;;
6105;SDS011;3083;51.508;7.966;2023-05-10T03:10:12;14.87;;;6.00;;
6105;SDS011;3083;51.508;7.966;2023-05-10T03:12:45;17.80;;;6.63;;
6105;SDS011;3083;51.508;7.966;2023-05-10T03:15:22;12.67;;;5.93;;
6105;SDS011;3083;51.508;7.966;2023-05-10T03:18:00;13.97;;;6.07;;
6105;SDS011;3083;51.508;7.966;2023-05-10T03:20:33;10.60;;;4.77;;
6105;SDS011;3083;51.508;7.966;2023-05-10T03:23:06;10.60;;;5.13;;
6105;SDS011;3083;51.508;7.966;2023-05-10T03:25:38;11.70;;;5.50;;
6105;SDS011;3083;51.508;7.966;2023-05-10T03:28:10;14.53;;;6.80;;
6105;SDS011;3083;51.508;7.966;2023-05-10T03:30:38;13.00;;;5.90;;
6105;SDS011;3083;51.508;7.966;2023-05-10T03:33:06;14.00;;;6.70;;
6105;SDS011;3083;51.508;7.966;2023-05-10T03:35:33;12.57;;;6.07;;
6105;SDS011;3083;51.508;7.966;2023-05-10T03:38:00;10.60;;;5.47;;
6105;SDS011;3083;51.508;7.966;2023-05-10T03:40:27;9.13;;;3.97;;
6105;SDS011;3083;51.508;7.966;2023-05-10T03:42:57;7.70;;;3.27;;
6105;SDS011;3083;51.508;7.966;2023-05-10T03:45:25;12.57;;;4.53;;
6105;SDS011;3083;51.508;7.966;2023-05-10T03:47:52;9.50;;;4.77;;
6105;SDS011;3083;51.508;7.966;2023-05-10T03:50:19;10.50;;;4.50;;
6105;SDS011;3083;51.508;7.966;2023-05-10T03:52:46;10.97;;;5.00;;
6105;SDS011;3083;51.508;7.966;2023-05-10T03:55:14;10.77;;;4.40;;
6105;SDS011;3083;51.508;7.966;2023-05-10T03:57:42;6.70;;;2.90;;
6105;SDS011;3083;51.508;7.966;2023-05-10T04:00:09;4.87;;;2.30;;
6105;SDS011;3083;51.508;7.966;2023-05-10T04:02:38;6.60;;;2.77;;
6105;SDS011;3083;51.508;7.966;2023-05-10T04:05:05;5.50;;;2.70;;
6105;SDS011;3083;51.508;7.966;2023-05-10T04:07:33;5.33;;;2.37;;
6105;SDS011;3083;51.508;7.966;2023-05-10T04:10:01;6.00;;;2.90;;
6105;SDS011;3083;51.508;7.966;2023-05-10T04:12:28;6.23;;;2.60;;
6105;SDS011;3083;51.508;7.966;2023-05-10T04:14:55;6.47;;;2.80;;
6105;SDS011;3083;51.508;7.966;2023-05-10T04:17:22;6.00;;;3.07;;
6105;SDS011;3083;51.508;7.966;2023-05-10T04:19:50;7.07;;;3.40;;
6105;SDS011;3083;51.508;7.966;2023-05-10T04:22:19;6.23;;;2.83;;
6105;SDS011;3083;51.508;7.966;2023-05-10T04:24:46;7.60;;;2.77;;
6105;SDS011;3083;51.508;7.966;2023-05-10T04:27:13;7.17;;;3.00;;
6105;SDS011;3083;51.508;7.966;2023-05-10T04:29:40;7.60;;;3.10;;
6105;SDS011;3083;51.508;7.966;2023-05-10T04:32:07;5.97;;;2.87;;
6105;SDS011;3083;51.508;7.966;2023-05-10T04:34:35;6.30;;;2.57;;
6105;SDS011;3083;51.508;7.966;2023-05-10T04:37:04;5.30;;;2.70;;
6105;SDS011;3083;51.508;7.966;2023-05-10T04:39:32;6.27;;;3.00;;
6105;SDS011;3083;51.508;7.966;2023-05-10T04:42:00;9.50;;;3.40;;
6105;SDS011;3083;51.508;7.966;2023-05-10T04:44:27;6.93;;;3.70;;
6105;SDS011;3083;51.508;7.966;2023-05-10T04:46:54;8.67;;;3.33;;
6105;SDS011;3083;51.508;7.966;2023-05-10T04:49:21;8.57;;;3.50;;
6105;SDS011;3083;51.508;7.966;2023-05-10T04:51:48;7.47;;;3.17;;
6105;SDS011;3083;51.508;7.966;2023-05-10T04:54:16;8.10;;;3.10;;
6105;SDS011;3083;51.508;7.966;2023-05-10T04:56:44;5.20;;;2.63;;
6105;SDS011;3083;51.508;7.966;2023-05-10T04:59:10;4.93;;;2.30;;
6105;SDS011;3083;51.508;7.966;2023-05-10T05:01:37;6.27;;;2.87;;
6105;SDS011;3083;51.508;7.966;2023-05-10T05:04:05;6.30;;;3.13;;
6105;SDS011;3083;51.508;7.966;2023-05-10T05:06:32;6.20;;;2.73;;
6105;SDS011;3083;51.508;7.966;2023-05-10T05:08:59;8.33;;;2.93;;
6105;SDS011;3083;51.508;7.966;2023-05-10T05:11:27;8.27;;;3.20;;
6105;SDS011;3083;51.508;7.966;2023-05-10T05:13:54;9.30;;;3.10;;
6105;SDS011;3083;51.508;7.966;2023-05-10T05:16:23;10.30;;;3.70;;
6105;SDS011;3083;51.508;7.966;2023-05-10T05:18:51;9.50;;;3.87;;
6105;SDS011;3083;51.508;7.966;2023-05-10T05:21:18;7.77;;;4.07;;
6105;SDS011;3083;51.508;7.966;2023-05-10T05:23:46;10.63;;;4.23;;
6105;SDS011;3083;51.508;7.966;2023-05-10T05:26:13;9.23;;;4.20;;
6105;SDS011;3083;51.508;7.966;2023-05-10T05:28:41;8.63;;;4.63;;
6105;SDS011;3083;51.508;7.966;2023-05-10T05:31:08;8.37;;;4.57;;
6105;SDS011;3083;51.508;7.966;2023-05-10T05:33:35;10.83;;;5.40;;
6105;SDS011;3083;51.508;7.966;2023-05-10T05:36:02;11.87;;;5.23;;
6105;SDS011;3083;51.508;7.966;2023-05-10T05:38:30;11.50;;;5.50;;
6105;SDS011;3083;51.508;7.966;2023-05-10T05:40:57;14.73;;;6.90;;
6105;SDS011;3083;51.508;7.966;2023-05-10T05:43:24;16.23;;;8.10;;
6105;SDS011;3083;51.508;7.966;2023-05-10T05:45:53;20.13;;;8.20;;
6105;SDS011;3083;51.508;7.966;2023-05-10T05:48:20;15.23;;;7.90;;
6105;SDS011;3083;51.508;7.966;2023-05-10T05:50:47;18.13;;;8.93;;
6105;SDS011;3083;51.508;7.966;2023-05-10T05:53:13;17.83;;;8.33;;
6105;SDS011;3083;51.508;7.966;2023-05-10T05:55:45;22.60;;;10.07;;
6105;SDS011;3083;51.508;7.966;2023-05-10T05:58:17;25.40;;;9.70;;
6105;SDS011;3083;51.508;7.966;2023-05-10T06:00:44;20.60;;;8.80;;
6105;SDS011;3083;51.508;7.966;2023-05-10T06:03:13;20.77;;;9.07;;
6105;SDS011;3083;51.508;7.966;2023-05-10T06:05:40;20.57;;;9.30;;
6105;SDS011;3083;51.508;7.966;2023-05-10T06:08:07;17.60;;;7.90;;
6105;SDS011;3083;51.508;7.966;2023-05-10T06:10:34;18.03;;;7.90;;
6105;SDS011;3083;51.508;7.966;2023-05-10T06:13:01;15.37;;;7.80;;
6105;SDS011;3083;51.508;7.966;2023-05-10T06:15:28;15.13;;;7.90;;
6105;SDS011;3083;51.508;7.966;2023-05-10T06:17:55;16.60;;;7.80;;
6105;SDS011;3083;51.508;7.966;2023-05-10T06:20:24;18.60;;;8.30;;
6105;SDS011;3083;51.508;7.966;2023-05-10T06:22:51;22.80;;;8.23;;
6105;SDS011;3083;51.508;7.966;2023-05-10T06:25:19;23.27;;;9.93;;
6105;SDS011;3083;51.508;7.966;2023-05-10T06:27:46;22.97;;;11.03;;
6105;SDS011;3083;51.508;7.966;2023-05-10T06:30:14;30.50;;;11.90;;
6105;SDS011;3083;51.508;7.966;2023-05-10T06:32:41;30.23;;;12.90;;
6105;SDS011;3083;51.508;7.966;2023-05-10T06:35:10;27.93;;;11.77;;
6105;SDS011;3083;51.508;7.966;2023-05-10T06:37:38;30.33;;;13.03;;
6105;SDS011;3083;51.508;7.966;2023-05-10T06:40:06;34.10;;;12.90;;
6105;SDS011;3083;51.508;7.966;2023-05-10T06:42:34;31.30;;;13.10;;
6105;SDS011;3083;51.508;7.966;2023-05-10T06:45:01;29.13;;;11.87;;
6105;SDS011;3083;51.508;7.966;2023-05-10T06:47:28;29.20;;;12.37;;
6105;SDS011;3083;51.508;7.966;2023-05-10T06:49:55;27.23;;;11.23;;
6105;SDS011;3083;51.508;7.966;2023-05-10T06:52:22;28.63;;;11.13;;
6105;SDS011;3083;51.508;7.966;2023-05-10T06:54:50;27.53;;;11.67;;
6105;SDS011;3083;51.508;7.966;2023-05-10T06:57:17;26.27;;;12.30;;
6105;SDS011;3083;51.508;7.966;2023-05-10T06:59:44;29.97;;;12.67;;
6105;SDS011;3083;51.508;7.966;2023-05-10T07:02:11;25.50;;;12.37;;
6105;SDS011;3083;51.508;7.966;2023-05-10T07:04:39;29.33;;;12.37;;
6105;SDS011;3083;51.508;7.966;2023-05-10T07:07:06;28.23;;;12.30;;
6105;SDS011;3083;51.508;7.966;2023-05-10T07:09:33;28.17;;;11.80;;
6105;SDS011;3083;51.508;7.966;2023-05-10T07:12:02;29.40;;;13.03;;
6105;SDS011;3083;51.508;7.966;2023-05-10T07:14:29;33.53;;;13.43;;
6105;SDS011;3083;51.508;7.966;2023-05-10T07:16:56;43.07;;;15.47;;
6105;SDS011;3083;51.508;7.966;2023-05-10T07:19:23;49.90;;;17.47;;
6105;SDS011;3083;51.508;7.966;2023-05-10T07:21:50;46.13;;;18.00;;
6105;SDS011;3083;51.508;7.966;2023-05-10T07:24:16;38.70;;;14.83;;
6105;SDS011;3083;51.508;7.966;2023-05-10T07:26:43;26.50;;;12.17;;
6105;SDS011;3083;51.508;7.966;2023-05-10T07:29:12;24.70;;;12.13;;
6105;SDS011;3083;51.508;7.966;2023-05-10T07:31:39;24.27;;;12.70;;
6105;SDS011;3083;51.508;7.966;2023-05-10T07:34:06;27.30;;;13.03;;
6105;SDS011;3083;51.508;7.966;2023-05-10T07:36:33;27.80;;;14.67;;
6105;SDS011;3083;51.508;7.966;2023-05-10T07:39:00;28.47;;;13.97;;
6105;SDS011;3083;51.508;7.966;2023-05-10T07:41:28;27.83;;;13.00;;
6105;SDS011;3083;51.508;7.966;2023-05-10T07:43:55;30.27;;;14.10;;
6105;SDS011;3083;51.508;7.966;2023-05-10T07:46:23;28.40;;;14.60;;
6105;SDS011;3083;51.508;7.966;2023-05-10T07:48:50;28.40;;;14.93;;
6105;SDS011;3083;51.508;7.966;2023-05-10T07:51:17;27.80;;;13.80;;
6105;SDS011;3083;51.508;7.966;2023-05-10T07:53:44;25.87;;;12.80;;
6105;SDS011;3083;51.508;7.966;2023-05-10T07:56:21;27.17;;;14.00;;
6105;SDS011;3083;51.508;7.966;2023-05-10T07:58:51;27.03;;;13.03;;
6105;SDS011;3083;51.508;7.966;2023-05-10T08:01:18;25.20;;;12.83;;
6105;SDS011;3083;51.508;7.966;2023-05-10T08:03:47;26.30;;;13.40;;
6105;SDS011;3083;51.508;7.966;2023-05-10T08:06:14;30.37;;;14.20;;
6105;SDS011;3083;51.508;7.966;2023-05-10T08:08:41;28.53;;;13.80;;
6105;SDS011;3083;51.508;7.966;2023-05-10T08:11:08;30.90;;;14.13;;
6105;SDS011;3083;51.508;7.966;2023-05-10T08:13:35;26.07;;;13.10;;
6105;SDS011;3083;51.508;7.966;2023-05-10T08:16:02;29.57;;;13.47;;
6105;SDS011;3083;51.508;7.966;2023-05-10T08:18:29;29.13;;;14.67;;
6105;SDS011;3083;51.508;7.966;2023-05-10T08:20:57;27.87;;;14.20;;
6105;SDS011;3083;51.508;7.966;2023-05-10T08:23:24;28.57;;;13.33;;
6105;SDS011;3083;51.508;7.966;2023-05-10T08:25:51;27.63;;;12.97;;
6105;SDS011;3083;51.508;7.966;2023-05-10T08:28:18;30.90;;;13.80;;
6105;SDS011;3083;51.508;7.966;2023-05-10T08:30:45;25.80;;;12.83;;
6105;SDS011;3083;51.508;7.966;2023-05-10T08:33:12;23.40;;;12.00;;
6105;SDS011;3083;51.508;7.966;2023-05-10T08:35:39;24.77;;;12.60;;
6105;SDS011;3083;51.508;7.966;2023-05-10T08:38:07;23.93;;;12.90;;
6105;SDS011;3083;51.508;7.966;2023-05-10T08:40:34;24.93;;;12.60;;
6105;SDS011;3083;51.508;7.966;2023-05-10T08:43:04;22.30;;;11.83;;
6105;SDS011;3083;51.508;7.966;2023-05-10T08:45:33;19.57;;;11.23;;
6105;SDS011;3083;51.508;7.966;2023-05-10T08:48:03;22.07;;;11.67;;
6105;SDS011;3083;51.508;7.966;2023-05-10T08:50:34;21.47;;;11.70;;
6105;SDS011;3083;51.508;7.966;2023-05-10T08:53:04;21.83;;;12.40;;
6105;SDS011;3083;51.508;7.966;2023-05-10T08:55:33;22.80;;;12.27;;
6105;SDS011;3083;51.508;7.966;2023-05-10T08:58:01;26.03;;;13.20;;
6105;SDS011;3083;51.508;7.966;2023-05-10T09:00:29;19.37;;;10.27;;
6105;SDS011;3083;51.508;7.966;2023-05-10T09:02:56;18.10;;;10.10;;
6105;SDS011;3083;51.508;7.966;2023-05-10T09:05:24;19.90;;;11.80;;
6105;SDS011;3083;51.508;7.966;2023-05-10T09:07:51;22.53;;;12.03;;
6105;SDS011;3083;51.508;7.966;2023-05-10T09:10:18;19.10;;;10.63;;
6105;SDS011;3083;51.508;7.966;2023-05-10T09:12:48;19.57;;;10.43;;
6105;SDS011;3083;51.508;7.966;2023-05-10T09:15:15;20.30;;;10.67;;
6105;SDS011;3083;51.508;7.966;2023-05-10T09:17:44;16.10;;;9.53;;
6105;SDS011;3083;51.508;7.966;2023-05-10T09:20:11;18.63;;;10.37;;
6105;SDS011;3083;51.508;7.966;2023-05-10T09:22:39;15.93;;;9.67;;
6105;SDS011;3083;51.508;7.966;2023-05-10T09:25:06;18.30;;;9.90;;
6105;SDS011;3083;51.508;7.966;2023-05-10T09:27:36;15.73;;;8.40;;
6105;SDS011;3083;51.508;7.966;2023-05-10T09:30:09;15.97;;;8.37;;
6105;SDS011;3083;51.508;7.966;2023-05-10T09:32:37;16.80;;;8.27;;
6105;SDS011;3083;51.508;7.966;2023-05-10T09:35:08;13.33;;;7.70;;
6105;SDS011;3083;51.508;7.966;2023-05-10T09:37:36;14.30;;;7.93;;
6105;SDS011;3083;51.508;7.966;2023-05-10T09:40:08;13.70;;;7.70;;
6105;SDS011;3083;51.508;7.966;2023-05-10T09:42:40;16.20;;;8.30;;
6105;SDS011;3083;51.508;7.966;2023-05-10T09:45:10;12.53;;;7.20;;
6105;SDS011;3083;51.508;7.966;2023-05-10T09:47:37;12.30;;;7.50;;
6105;SDS011;3083;51.508;7.966;2023-05-10T09:50:04;15.13;;;8.10;;
6105;SDS011;3083;51.508;7.966;2023-05-10T09:52:45;18.00;;;8.50;;
6105;SDS011;3083;51.508;7.966;2023-05-10T09:55:13;12.27;;;7.57;;
6105;SDS011;3083;51.508;7.966;2023-05-10T09:57:41;13.27;;;7.90;;
6105;SDS011;3083;51.508;7.966;2023-05-10T10:00:10;12.37;;;7.30;;
6105;SDS011;3083;51.508;7.966;2023-05-10T10:02:44;14.90;;;7.63;;
6105;SDS011;3083;51.508;7.966;2023-05-10T10:05:13;11.33;;;6.67;;
6105;SDS011;3083;51.508;7.966;2023-05-10T10:07:40;12.90;;;7.50;;
6105;SDS011;3083;51.508;7.966;2023-05-10T10:10:07;11.67;;;7.00;;
6105;SDS011;3083;51.508;7.966;2023-05-10T10:12:37;14.13;;;7.50;;
6105;SDS011;3083;51.508;7.966;2023-05-10T10:15:05;12.80;;;7.00;;
6105;SDS011;3083;51.508;7.966;2023-05-10T10:17:36;12.13;;;6.27;;
6105;SDS011;3083;51.508;7.966;2023-05-10T10:20:04;11.27;;;6.47;;
6105;SDS011;3083;51.508;7.966;2023-05-10T10:22:32;11.93;;;6.60;;
6105;SDS011;3083;51.508;7.966;2023-05-10T10:24:59;9.87;;;6.40;;
6105;SDS011;3083;51.508;7.966;2023-05-10T10:27:28;11.83;;;6.70;;
6105;SDS011;3083;51.508;7.966;2023-05-10T10:30:04;13.10;;;7.10;;
6105;SDS011;3083;51.508;7.966;2023-05-10T10:32:49;8.80;;;5.60;;
6105;SDS011;3083;51.508;7.966;2023-05-10T10:35:28;10.90;;;6.50;;
6105;SDS011;3083;51.508;7.966;2023-05-10T10:37:56;12.47;;;7.17;;
6105;SDS011;3083;51.508;7.966;2023-05-10T10:40:24;11.97;;;6.50;;
6105;SDS011;3083;51.508;7.966;2023-05-10T10:42:52;10.17;;;6.43;;
6105;SDS011;3083;51.508;7.966;2023-05-10T10:45:20;11.90;;;7.00;;
6105;SDS011;3083;51.508;7.966;2023-05-10T10:47:50;13.63;;;6.70;;
6105;SDS011;3083;51.508;7.966;2023-05-10T10:50:44;14.10;;;6.93;;
6105;SDS011;3083;51.508;7.966;2023-05-10T10:53:12;10.47;;;6.40;;
6105;SDS011;3083;51.508;7.966;2023-05-10T10:55:44;9.80;;;6.20;;
6105;SDS011;3083;51.508;7.966;2023-05-10T10:58:16;10.40;;;6.20;;
6105;SDS011;3083;51.508;7.966;2023-05-10T11:01:08;9.60;;;6.30;;
6105;SDS011;3083;51.508;7.966;2023-05-10T11:03:41;10.20;;;6.30;;
6105;SDS011;3083;51.508;7.966;2023-05-10T11:06:34;9.97;;;5.63;;
6105;SDS011;3083;51.508;7.966;2023-05-10T11:09:04;10.33;;;5.90;;
6105;SDS011;3083;51.508;7.966;2023-05-10T11:11:34;12.40;;;6.13;;
6105;SDS011;3083;51.508;7.966;2023-05-10T11:14:02;14.07;;;6.73;;
6105;SDS011;3083;51.508;7.966;2023-05-10T11:16:40;13.73;;;6.80;;
6105;SDS011;3083;51.508;7.966;2023-05-10T11:19:10;14.17;;;8.00;;
6105;SDS011;3083;51.508;7.966;2023-05-10T11:21:44;13.50;;;6.53;;
6105;SDS011;3083;51.508;7.966;2023-05-10T11:24:14;12.60;;;7.30;;
6105;SDS011;3083;51.508;7.966;2023-05-10T11:26:42;15.30;;;7.47;;
6105;SDS011;3083;51.508;7.966;2023-05-10T11:29:09;12.10;;;6.97;;
6105;SDS011;3083;51.508;7.966;2023-05-10T11:31:41;12.03;;;7.50;;
6105;SDS011;3083;51.508;7.966;2023-05-10T11:34:11;13.30;;;6.70;;
6105;SDS011;3083;51.508;7.966;2023-05-10T11:36:41;11.80;;;6.83;;
6105;SDS011;3083;51.508;7.966;2023-05-10T11:39:08;15.87;;;7.37;;
6105;SDS011;3083;51.508;7.966;2023-05-10T11:41:36;11.00;;;6.03;;
6105;SDS011;3083;51.508;7.966;2023-05-10T11:44:03;11.30;;;6.00;;
6105;SDS011;3083;51.508;7.966;2023-05-10T11:46:30;11.13;;;5.70;;
6105;SDS011;3083;51.508;7.966;2023-05-10T11:48:57;10.07;;;5.23;;
6105;SDS011;3083;51.508;7.966;2023-05-10T11:51:32;9.83;;;5.50;;
6105;SDS011;3083;51.508;7.966;2023-05-10T11:54:00;8.30;;;4.97;;
6105;SDS011;3083;51.508;7.966;2023-05-10T11:56:28;9.40;;;5.37;;
6105;SDS011;3083;51.508;7.966;2023-05-10T11:58:55;9.77;;;5.93;;
6105;SDS011;3083;51.508;7.966;2023-05-10T12:01:23;8.63;;;4.93;;
6105;SDS011;3083;51.508;7.966;2023-05-10T12:03:51;12.50;;;5.60;;
6105;SDS011;3083;51.508;7.966;2023-05-10T12:06:19;10.77;;;5.60;;
6105;SDS011;3083;51.508;7.966;2023-05-10T12:08:48;10.70;;;5.00;;
6105;SDS011;3083;51.508;7.966;2023-05-10T12:11:17;12.13;;;5.87;;
6105;SDS011;3083;51.508;7.966;2023-05-10T12:13:45;10.73;;;6.90;;
6105;SDS011;3083;51.508;7.966;2023-05-10T12:16:14;16.50;;;7.23;;
6105;SDS011;3083;51.508;7.966;2023-05-10T12:18:42;12.27;;;7.30;;
6105;SDS011;3083;51.508;7.966;2023-05-10T12:21:09;14.03;;;7.40;;
6105;SDS011;3083;51.508;7.966;2023-05-10T12:23:37;16.93;;;9.13;;
6105;SDS011;3083;51.508;7.966;2023-05-10T12:26:06;20.80;;;10.13;;
6105;SDS011;3083;51.508;7.966;2023-05-10T12:28:36;19.53;;;10.13;;
6105;SDS011;3083;51.508;7.966;2023-05-10T12:31:04;20.23;;;9.00;;
6105;SDS011;3083;51.508;7.966;2023-05-10T12:33:35;18.23;;;10.40;;
6105;SDS011;3083;51.508;7.966;2023-05-10T12:36:04;18.97;;;10.03;;
6105;SDS011;3083;51.508;7.966;2023-05-10T12:38:33;17.70;;;9.53;;
6105;SDS011;3083;51.508;7.966;2023-05-10T12:41:02;22.03;;;12.70;;
6105;SDS011;3083;51.508;7.966;2023-05-10T12:43:33;25.07;;;11.27;;
6105;SDS011;3083;51.508;7.966;2023-05-10T12:46:04;22.27;;;10.87;;
6105;SDS011;3083;51.508;7.966;2023-05-10T12:48:32;20.63;;;9.93;;
6105;SDS011;3083;51.508;7.966;2023-05-10T12:51:00;20.77;;;10.13;;
6105;SDS011;3083;51.508;7.966;2023-05-10T12:53:27;20.07;;;9.73;;
6105;SDS011;3083;51.508;7.966;2023-05-10T12:55:54;18.00;;;10.03;;
6105;SDS011;3083;51.508;7.966;2023-05-10T12:58:21;16.03;;;8.47;;
6105;SDS011;3083;51.508;7.966;2023-05-10T13:00:49;17.83;;;8.93;;
6105;SDS011;3083;51.508;7.966;2023-05-10T13:03:17;14.50;;;8.00;;
6105;SDS011;3083;51.508;7.966;2023-05-10T13:05:44;14.53;;;7.73;;
6105;SDS011;3083;51.508;7.966;2023-05-10T13:08:11;17.43;;;8.17;;
6105;SDS011;3083;51.508;7.966;2023-05-10T13:10:38;13.37;;;7.90;;
6105;SDS011;3083;51.508;7.966;2023-05-10T13:13:05;15.87;;;7.70;;
6105;SDS011;3083;51.508;7.966;2023-05-10T13:15:33;16.37;;;7.97;;
6105;SDS011;3083;51.508;7.966;2023-05-10T13:18:01;10.83;;;6.53;;
6105;SDS011;3083;51.508;7.966;2023-05-10T13:20:28;12.20;;;7.20;;
6105;SDS011;3083;51.508;7.966;2023-05-10T13:22:55;14.83;;;7.37;;
6105;SDS011;3083;51.508;7.966;2023-05-10T13:25:22;10.93;;;7.30;;
6105;SDS011;3083;51.508;7.966;2023-05-10T13:27:49;12.93;;;8.23;;
6105;SDS011;3083;51.508;7.966;2023-05-10T13:30:16;14.60;;;8.73;;
6105;SDS011;3083;51.508;7.966;2023-05-10T13:32:43;13.77;;;8.97;;
6105;SDS011;3083;51.508;7.966;2023-05-10T13:35:12;16.70;;;9.13;;
6105;SDS011;3083;51.508;7.966;2023-05-10T13:37:38;15.10;;;8.80;;
6105;SDS011;3083;51.508;7.966;2023-05-10T13:40:06;14.60;;;8.70;;
6105;SDS011;3083;51.508;7.966;2023-05-10T13:42:34;12.67;;;7.60;;
6105;SDS011;3083;51.508;7.966;2023-05-10T13:45:01;15.30;;;7.80;;
6105;SDS011;3083;51.508;7.966;2023-05-10T13:47:28;11.80;;;6.87;;
6105;SDS011;3083;51.508;7.966;2023-05-10T13:49:55;13.70;;;7.93;;
6105;SDS011;3083;51.508;7.966;2023-05-10T13:52:24;11.60;;;6.77;;
6105;SDS011;3083;51.508;7.966;2023-05-10T13:54:51;11.93;;;6.47;;
6105;SDS011;3083;51.508;7.966;2023-05-10T13:57:19;10.33;;;6.60;;
6105;SDS011;3083;51.508;7.966;2023-05-10T13:59:46;12.57;;;6.67;;
6105;SDS011;3083;51.508;7.966;2023-05-10T14:02:15;12.33;;;7.10;;
6105;SDS011;3083;51.508;7.966;2023-05-10T14:04:42;11.30;;;6.90;;
6105;SDS011;3083;51.508;7.966;2023-05-10T14:07:09;10.30;;;6.60;;
6105;SDS011;3083;51.508;7.966;2023-05-10T14:09:37;13.70;;;7.10;;
6105;SDS011;3083;51.508;7.966;2023-05-10T14:12:04;13.97;;;7.50;;
6105;SDS011;3083;51.508;7.966;2023-05-10T14:14:31;11.20;;;7.20;;
6105;SDS011;3083;51.508;7.966;2023-05-10T14:16:58;12.50;;;6.90;;
6105;SDS011;3083;51.508;7.966;2023-05-10T14:19:25;12.00;;;6.60;;
6105;SDS011;3083;51.508;7.966;2023-05-10T14:21:53;13.10;;;6.80;;
6105;SDS011;3083;51.508;7.966;2023-05-10T14:24:19;9.53;;;6.13;;
6105;SDS011;3083;51.508;7.966;2023-05-10T14:26:48;8.33;;;5.40;;
6105;SDS011;3083;51.508;7.966;2023-05-10T14:29:18;9.47;;;6.00;;
6105;SDS011;3083;51.508;7.966;2023-05-10T14:31:45;10.60;;;5.90;;
6105;SDS011;3083;51.508;7.966;2023-05-10T14:34:12;11.20;;;6.70;;
6105;SDS011;3083;51.508;7.966;2023-05-10T14:36:39;10.40;;;6.40;;
6105;SDS011;3083;51.508;7.966;2023-05-10T14:39:06;9.50;;;6.50;;
6105;SDS011;3083;51.508;7.966;2023-05-10T14:41:34;12.17;;;6.80;;
6105;SDS011;3083;51.508;7.966;2023-05-10T14:44:03;11.80;;;7.23;;
6105;SDS011;3083;51.508;7.966;2023-05-10T14:46:30;12.97;;;7.90;;
6105;SDS011;3083;51.508;7.966;2023-05-10T14:48:59;11.40;;;7.50;;
6105;SDS011;3083;51.508;7.966;2023-05-10T14:51:26;13.17;;;7.30;;
6105;SDS011;3083;51.508;7.966;2023-05-10T14:53:53;12.27;;;7.83;;
6105;SDS011;3083;51.508;7.966;2023-05-10T14:56:20;12.97;;;7.70;;
6105;SDS011;3083;51.508;7.966;2023-05-10T14:58:47;11.77;;;7.70;;
6105;SDS011;3083;51.508;7.966;2023-05-10T15:01:17;10.43;;;6.47;;
6105;SDS011;3083;51.508;7.966;2023-05-10T15:03:44;11.00;;;6.37;;
6105;SDS011;3083;51.508;7.966;2023-05-10T15:06:11;12.63;;;7.30;;
6105;SDS011;3083;51.508;7.966;2023-05-10T15:08:39;11.13;;;6.57;;
6105;SDS011;3083;51.508;7.966;2023-05-10T15:11:07;11.40;;;6.60;;